sensor_id;sensor_type;location;lat;lon;timestamp;P1;durP1;ratioP1;P2;durP2;ratioP2
14736;SDS011;7459;53.590;10.062;2022-08-26T00:00:09;10.60;;;4.90;;
14736;SDS011;7459;53.590;10.062;2022-08-26T00:02:36;13.43;;;4.22;;
14736;SDS011;7459;53.590;10.062;2022-08-26T00:05:02;11.87;;;4.63;;
14736;SDS011;7459;53.590;10.062;2022-08-26T00:07:28;12.07;;;4.60;;
14736;SDS011;7459;53.590;10.062;2022-08-26T00:09:54;12.70;;;4.35;;
14736;SDS011;7459;53.590;10.062;2022-08-26T00:12:19;9.67;;;4.77;;
14736;SDS011;7459;53.590;10.062;2022-08-26T00:14:45;9.10;;;4.68;;
14736;SDS011;7459;53.590;10.062;2022-08-26T00:17:11;17.40;;;4.57;;
14736;SDS011;7459;53.590;10.062;2022-08-26T00:19:36;11.10;;;4.85;;
14736;SDS011;7459;53.590;10.062;2022-08-26T00:22:02;12.43;;;4.73;;
14736;SDS011;7459;53.590;10.062;2022-08-26T00:24:28;10.07;;;4.43;;
14736;SDS011;7459;53.590;10.062;2022-08-26T00:26:54;8.98;;;4.70;;
14736;SDS011;7459;53.590;10.062;2022-08-26T00:29:20;11.70;;;4.77;;
14736;SDS011;7459;53.590;10.062;2022-08-26T00:31:45;11.50;;;4.60;;
14736;SDS011;7459;53.590;10.062;2022-08-26T00:34:11;11.80;;;4.53;;
14736;SDS011;7459;53.590;10.062;2022-08-26T00:36:38;9.65;;;4.35;;
14736;SDS011;7459;53.590;10.062;2022-08-26T00:39:04;9.27;;;4.80;;
14736;SDS011;7459;53.590;10.062;2022-08-26T00:41:31;12.00;;;4.72;;
14736;SDS011;7459;53.590;10.062;2022-08-26T00:43:58;14.20;;;5.20;;
14736;SDS011;7459;53.590;10.062;2022-08-26T00:46:25;11.45;;;4.85;;
14736;SDS011;7459;53.590;10.062;2022-08-26T00:48:57;8.90;;;5.20;;
14736;SDS011;7459;53.590;10.062;2022-08-26T00:51:30;11.47;;;4.53;;
14736;SDS011;7459;53.590;10.062;2022-08-26T00:53:58;11.63;;;5.18;;
14736;SDS011;7459;53.590;10.062;2022-08-26T00:56:54;9.80;;;5.05;;
14736;SDS011;7459;53.590;10.062;2022-08-26T00:59:23;12.02;;;4.43;;
14736;SDS011;7459;53.590;10.062;2022-08-26T01:01:50;8.18;;;4.68;;
14736;SDS011;7459;53.590;10.062;2022-08-26T01:04:17;8.97;;;4.80;;
14736;SDS011;7459;53.590;10.062;2022-08-26T01:06:46;11.45;;;4.65;;
14736;SDS011;7459;53.590;10.062;2022-08-26T01:09:15;13.05;;;4.95;;
14736;SDS011;7459;53.590;10.062;2022-08-26T01:11:42;12.45;;;4.55;;
14736;SDS011;7459;53.590;10.062;2022-08-26T01:14:08;11.60;;;4.80;;
14736;SDS011;7459;53.590;10.062;2022-08-26T01:16:36;15.23;;;4.97;;
14736;SDS011;7459;53.590;10.062;2022-08-26T01:19:06;10.13;;;4.70;;
14736;SDS011;7459;53.590;10.062;2022-08-26T01:21:45;9.70;;;4.72;;
14736;SDS011;7459;53.590;10.062;2022-08-26T01:24:19;11.05;;;4.70;;
14736;SDS011;7459;53.590;10.062;2022-08-26T01:26:45;12.03;;;4.93;;
14736;SDS011;7459;53.590;10.062;2022-08-26T01:29:15;10.63;;;4.75;;
14736;SDS011;7459;53.590;10.062;2022-08-26T01:31:51;13.27;;;5.10;;
14736;SDS011;7459;53.590;10.062;2022-08-26T01:37:06;10.82;;;4.78;;
14736;SDS011;7459;53.590;10.062;2022-08-26T01:39:38;11.93;;;5.27;;
14736;SDS011;7459;53.590;10.062;2022-08-26T01:42:05;13.13;;;5.20;;
14736;SDS011;7459;53.590;10.062;2022-08-26T01:44:35;12.95;;;4.68;;
14736;SDS011;7459;53.590;10.062;2022-08-26T01:47:09;10.93;;;5.18;;
14736;SDS011;7459;53.590;10.062;2022-08-26T01:49:37;11.95;;;5.15;;
14736;SDS011;7459;53.590;10.062;2022-08-26T01:52:04;11.23;;;4.40;;
14736;SDS011;7459;53.590;10.062;2022-08-26T01:54:32;10.73;;;4.50;;
14736;SDS011;7459;53.590;10.062;2022-08-26T01:56:59;9.13;;;4.60;;
14736;SDS011;7459;53.590;10.062;2022-08-26T01:59:26;10.18;;;4.85;;
14736;SDS011;7459;53.590;10.062;2022-08-26T02:01:53;11.43;;;4.53;;
14736;SDS011;7459;53.590;10.062;2022-08-26T02:04:24;14.10;;;5.10;;
14736;SDS011;7459;53.590;10.062;2022-08-26T02:06:58;11.95;;;4.60;;
14736;SDS011;7459;53.590;10.062;2022-08-26T02:09:29;11.57;;;5.07;;
14736;SDS011;7459;53.590;10.062;2022-08-26T02:11:55;12.45;;;4.68;;
14736;SDS011;7459;53.590;10.062;2022-08-26T02:14:22;11.70;;;4.70;;
14736;SDS011;7459;53.590;10.062;2022-08-26T02:16:53;13.70;;;4.97;;
14736;SDS011;7459;53.590;10.062;2022-08-26T02:19:25;11.43;;;4.65;;
14736;SDS011;7459;53.590;10.062;2022-08-26T02:21:54;10.88;;;4.82;;
14736;SDS011;7459;53.590;10.062;2022-08-26T02:24:25;12.25;;;5.30;;
14736;SDS011;7459;53.590;10.062;2022-08-26T02:26:55;12.77;;;4.60;;
14736;SDS011;7459;53.590;10.062;2022-08-26T02:29:28;11.65;;;4.78;;
14736;SDS011;7459;53.590;10.062;2022-08-26T02:32:00;14.70;;;5.63;;
14736;SDS011;7459;53.590;10.062;2022-08-26T02:34:29;11.40;;;4.40;;
14736;SDS011;7459;53.590;10.062;2022-08-26T02:36:58;10.60;;;4.63;;
14736;SDS011;7459;53.590;10.062;2022-08-26T02:39:27;14.60;;;4.85;;
14736;SDS011;7459;53.590;10.062;2022-08-26T02:41:55;15.20;;;5.40;;
14736;SDS011;7459;53.590;10.062;2022-08-26T02:44:21;11.52;;;5.32;;
14736;SDS011;7459;53.590;10.062;2022-08-26T02:46:47;10.40;;;4.67;;
14736;SDS011;7459;53.590;10.062;2022-08-26T02:49:13;11.05;;;4.55;;
14736;SDS011;7459;53.590;10.062;2022-08-26T02:51:40;10.05;;;4.22;;
14736;SDS011;7459;53.590;10.062;2022-08-26T02:54:06;10.73;;;5.23;;
14736;SDS011;7459;53.590;10.062;2022-08-26T02:56:32;13.40;;;4.95;;
14736;SDS011;7459;53.590;10.062;2022-08-26T02:58:58;11.57;;;5.00;;
14736;SDS011;7459;53.590;10.062;2022-08-26T03:01:26;13.73;;;5.10;;
14736;SDS011;7459;53.590;10.062;2022-08-26T03:03:57;10.55;;;4.60;;
14736;SDS011;7459;53.590;10.062;2022-08-26T03:06:24;8.15;;;4.65;;
14736;SDS011;7459;53.590;10.062;2022-08-26T03:08:50;9.73;;;4.67;;
14736;SDS011;7459;53.590;10.062;2022-08-26T03:11:16;8.43;;;4.80;;
14736;SDS011;7459;53.590;10.062;2022-08-26T03:13:43;11.40;;;4.70;;
14736;SDS011;7459;53.590;10.062;2022-08-26T03:16:09;7.88;;;4.40;;
14736;SDS011;7459;53.590;10.062;2022-08-26T03:18:35;13.23;;;5.18;;
14736;SDS011;7459;53.590;10.062;2022-08-26T03:21:05;8.93;;;5.20;;
14736;SDS011;7459;53.590;10.062;2022-08-26T03:23:34;11.82;;;5.00;;
14736;SDS011;7459;53.590;10.062;2022-08-26T03:26:02;11.07;;;5.65;;
14736;SDS011;7459;53.590;10.062;2022-08-26T03:28:29;12.80;;;4.82;;
14736;SDS011;7459;53.590;10.062;2022-08-26T03:30:56;11.00;;;4.50;;
14736;SDS011;7459;53.590;10.062;2022-08-26T03:33:23;12.23;;;5.10;;
14736;SDS011;7459;53.590;10.062;2022-08-26T03:35:49;14.63;;;5.28;;
14736;SDS011;7459;53.590;10.062;2022-08-26T03:38:16;11.05;;;5.20;;
14736;SDS011;7459;53.590;10.062;2022-08-26T03:40:44;10.25;;;4.80;;
14736;SDS011;7459;53.590;10.062;2022-08-26T03:43:11;14.27;;;5.70;;
14736;SDS011;7459;53.590;10.062;2022-08-26T03:45:39;17.13;;;5.50;;
14736;SDS011;7459;53.590;10.062;2022-08-26T03:48:06;9.30;;;4.68;;
14736;SDS011;7459;53.590;10.062;2022-08-26T03:50:32;14.77;;;5.32;;
14736;SDS011;7459;53.590;10.062;2022-08-26T03:52:58;10.88;;;5.60;;
14736;SDS011;7459;53.590;10.062;2022-08-26T03:55:25;12.23;;;5.60;;
14736;SDS011;7459;53.590;10.062;2022-08-26T03:57:56;11.95;;;5.55;;
14736;SDS011;7459;53.590;10.062;2022-08-26T04:00:22;14.82;;;5.20;;
14736;SDS011;7459;53.590;10.062;2022-08-26T04:02:48;10.30;;;5.38;;
14736;SDS011;7459;53.590;10.062;2022-08-26T04:05:16;11.68;;;5.35;;
14736;SDS011;7459;53.590;10.062;2022-08-26T04:07:44;12.67;;;5.00;;
14736;SDS011;7459;53.590;10.062;2022-08-26T04:10:12;14.73;;;5.45;;
14736;SDS011;7459;53.590;10.062;2022-08-26T04:12:40;11.77;;;5.25;;
14736;SDS011;7459;53.590;10.062;2022-08-26T04:15:07;11.90;;;5.47;;
14736;SDS011;7459;53.590;10.062;2022-08-26T04:17:37;13.48;;;5.85;;
14736;SDS011;7459;53.590;10.062;2022-08-26T04:20:04;15.53;;;5.40;;
14736;SDS011;7459;53.590;10.062;2022-08-26T04:22:32;12.35;;;5.07;;
14736;SDS011;7459;53.590;10.062;2022-08-26T04:24:57;9.93;;;5.10;;
14736;SDS011;7459;53.590;10.062;2022-08-26T04:27:23;13.60;;;6.10;;
14736;SDS011;7459;53.590;10.062;2022-08-26T04:29:49;11.60;;;4.97;;
14736;SDS011;7459;53.590;10.062;2022-08-26T04:32:15;14.63;;;6.10;;
14736;SDS011;7459;53.590;10.062;2022-08-26T04:34:41;14.25;;;5.18;;
14736;SDS011;7459;53.590;10.062;2022-08-26T04:37:07;11.98;;;5.32;;
14736;SDS011;7459;53.590;10.062;2022-08-26T04:39:33;11.13;;;5.35;;
14736;SDS011;7459;53.590;10.062;2022-08-26T04:41:59;13.50;;;5.10;;
14736;SDS011;7459;53.590;10.062;2022-08-26T04:44:25;15.05;;;5.53;;
14736;SDS011;7459;53.590;10.062;2022-08-26T04:46:53;16.50;;;5.57;;
14736;SDS011;7459;53.590;10.062;2022-08-26T04:49:20;12.23;;;5.55;;
14736;SDS011;7459;53.590;10.062;2022-08-26T04:51:46;11.17;;;5.17;;
14736;SDS011;7459;53.590;10.062;2022-08-26T04:54:13;12.48;;;5.18;;
14736;SDS011;7459;53.590;10.062;2022-08-26T04:56:40;10.68;;;5.80;;
14736;SDS011;7459;53.590;10.062;2022-08-26T04:59:09;13.82;;;5.78;;
14736;SDS011;7459;53.590;10.062;2022-08-26T05:01:41;12.20;;;5.80;;
14736;SDS011;7459;53.590;10.062;2022-08-26T05:04:12;14.20;;;5.53;;
14736;SDS011;7459;53.590;10.062;2022-08-26T05:06:38;12.50;;;5.32;;
14736;SDS011;7459;53.590;10.062;2022-08-26T05:09:04;12.02;;;5.80;;
14736;SDS011;7459;53.590;10.062;2022-08-26T05:11:31;11.43;;;5.90;;
14736;SDS011;7459;53.590;10.062;2022-08-26T05:13:57;13.70;;;5.17;;
14736;SDS011;7459;53.590;10.062;2022-08-26T05:16:22;12.65;;;6.00;;
14736;SDS011;7459;53.590;10.062;2022-08-26T05:18:48;13.57;;;5.57;;
14736;SDS011;7459;53.590;10.062;2022-08-26T05:21:15;11.70;;;6.27;;
14736;SDS011;7459;53.590;10.062;2022-08-26T05:23:44;15.18;;;5.97;;
14736;SDS011;7459;53.590;10.062;2022-08-26T05:26:11;15.13;;;6.15;;
14736;SDS011;7459;53.590;10.062;2022-08-26T05:28:37;13.65;;;6.30;;
14736;SDS011;7459;53.590;10.062;2022-08-26T05:31:16;12.03;;;5.97;;
14736;SDS011;7459;53.590;10.062;2022-08-26T05:33:50;15.10;;;6.78;;
14736;SDS011;7459;53.590;10.062;2022-08-26T05:36:17;15.02;;;6.35;;
14736;SDS011;7459;53.590;10.062;2022-08-26T05:38:46;14.32;;;5.93;;
14736;SDS011;7459;53.590;10.062;2022-08-26T05:41:16;11.57;;;6.03;;
14736;SDS011;7459;53.590;10.062;2022-08-26T05:43:52;10.73;;;5.95;;
14736;SDS011;7459;53.590;10.062;2022-08-26T05:46:22;13.82;;;5.95;;
14736;SDS011;7459;53.590;10.062;2022-08-26T05:48:58;13.20;;;6.72;;
14736;SDS011;7459;53.590;10.062;2022-08-26T05:51:26;16.98;;;5.90;;
14736;SDS011;7459;53.590;10.062;2022-08-26T05:53:52;16.47;;;6.43;;
14736;SDS011;7459;53.590;10.062;2022-08-26T05:56:18;13.68;;;6.00;;
14736;SDS011;7459;53.590;10.062;2022-08-26T05:58:45;14.40;;;6.45;;
14736;SDS011;7459;53.590;10.062;2022-08-26T06:01:12;12.70;;;5.82;;
14736;SDS011;7459;53.590;10.062;2022-08-26T06:03:43;14.40;;;6.63;;
14736;SDS011;7459;53.590;10.062;2022-08-26T06:06:19;14.98;;;6.85;;
14736;SDS011;7459;53.590;10.062;2022-08-26T06:08:50;15.10;;;6.75;;
14736;SDS011;7459;53.590;10.062;2022-08-26T06:11:18;18.08;;;6.53;;
14736;SDS011;7459;53.590;10.062;2022-08-26T06:13:49;13.18;;;6.10;;
14736;SDS011;7459;53.590;10.062;2022-08-26T06:16:24;13.37;;;6.33;;
14736;SDS011;7459;53.590;10.062;2022-08-26T06:18:50;14.98;;;6.80;;
14736;SDS011;7459;53.590;10.062;2022-08-26T06:23:56;16.42;;;6.95;;
14736;SDS011;7459;53.590;10.062;2022-08-26T06:26:51;17.00;;;6.47;;
14736;SDS011;7459;53.590;10.062;2022-08-26T06:29:21;14.73;;;6.28;;
14736;SDS011;7459;53.590;10.062;2022-08-26T06:31:50;13.00;;;5.55;;
14736;SDS011;7459;53.590;10.062;2022-08-26T06:34:17;13.75;;;6.32;;
14736;SDS011;7459;53.590;10.062;2022-08-26T06:36:43;13.43;;;6.40;;
14736;SDS011;7459;53.590;10.062;2022-08-26T06:39:12;16.67;;;6.63;;
14736;SDS011;7459;53.590;10.062;2022-08-26T06:41:40;12.60;;;6.78;;
14736;SDS011;7459;53.590;10.062;2022-08-26T06:44:09;14.75;;;6.15;;
14736;SDS011;7459;53.590;10.062;2022-08-26T06:46:36;11.40;;;5.65;;
14736;SDS011;7459;53.590;10.062;2022-08-26T06:49:02;14.17;;;6.20;;
14736;SDS011;7459;53.590;10.062;2022-08-26T06:51:30;12.25;;;6.28;;
14736;SDS011;7459;53.590;10.062;2022-08-26T06:53:58;13.70;;;6.38;;
14736;SDS011;7459;53.590;10.062;2022-08-26T06:56:32;13.35;;;5.88;;
14736;SDS011;7459;53.590;10.062;2022-08-26T06:59:01;12.52;;;6.93;;
14736;SDS011;7459;53.590;10.062;2022-08-26T07:01:30;13.63;;;6.07;;
14736;SDS011;7459;53.590;10.062;2022-08-26T07:04:02;13.52;;;6.22;;
14736;SDS011;7459;53.590;10.062;2022-08-26T07:06:29;13.82;;;6.43;;
14736;SDS011;7459;53.590;10.062;2022-08-26T07:09:00;18.63;;;7.38;;
14736;SDS011;7459;53.590;10.062;2022-08-26T07:11:30;15.13;;;7.07;;
14736;SDS011;7459;53.590;10.062;2022-08-26T07:13:57;18.10;;;6.53;;
14736;SDS011;7459;53.590;10.062;2022-08-26T07:16:23;13.20;;;6.68;;
14736;SDS011;7459;53.590;10.062;2022-08-26T07:18:49;10.43;;;6.20;;
14736;SDS011;7459;53.590;10.062;2022-08-26T07:21:17;17.33;;;6.50;;
14736;SDS011;7459;53.590;10.062;2022-08-26T07:23:45;14.18;;;6.63;;
14736;SDS011;7459;53.590;10.062;2022-08-26T07:26:14;15.57;;;6.93;;
14736;SDS011;7459;53.590;10.062;2022-08-26T07:28:44;14.23;;;6.60;;
14736;SDS011;7459;53.590;10.062;2022-08-26T07:31:12;16.05;;;6.75;;
14736;SDS011;7459;53.590;10.062;2022-08-26T07:33:39;16.48;;;6.95;;
14736;SDS011;7459;53.590;10.062;2022-08-26T07:36:06;12.68;;;6.78;;
14736;SDS011;7459;53.590;10.062;2022-08-26T07:38:34;13.70;;;7.30;;
14736;SDS011;7459;53.590;10.062;2022-08-26T07:41:02;18.10;;;7.35;;
14736;SDS011;7459;53.590;10.062;2022-08-26T07:43:29;17.60;;;7.43;;
14736;SDS011;7459;53.590;10.062;2022-08-26T07:45:55;12.52;;;6.65;;
14736;SDS011;7459;53.590;10.062;2022-08-26T07:48:21;14.07;;;7.07;;
14736;SDS011;7459;53.590;10.062;2022-08-26T07:50:48;17.47;;;7.23;;
14736;SDS011;7459;53.590;10.062;2022-08-26T07:53:14;13.68;;;6.65;;
14736;SDS011;7459;53.590;10.062;2022-08-26T07:55:39;17.60;;;7.30;;
14736;SDS011;7459;53.590;10.062;2022-08-26T07:58:05;18.30;;;6.72;;
14736;SDS011;7459;53.590;10.062;2022-08-26T08:00:32;14.10;;;6.97;;
14736;SDS011;7459;53.590;10.062;2022-08-26T08:02:58;13.23;;;7.13;;
14736;SDS011;7459;53.590;10.062;2022-08-26T08:05:26;21.10;;;7.40;;
14736;SDS011;7459;53.590;10.062;2022-08-26T08:07:54;17.27;;;7.10;;
14736;SDS011;7459;53.590;10.062;2022-08-26T08:10:21;13.93;;;7.47;;
14736;SDS011;7459;53.590;10.062;2022-08-26T08:12:48;13.85;;;6.57;;
14736;SDS011;7459;53.590;10.062;2022-08-26T08:15:15;22.52;;;7.10;;
14736;SDS011;7459;53.590;10.062;2022-08-26T08:17:42;14.10;;;7.20;;
14736;SDS011;7459;53.590;10.062;2022-08-26T08:20:08;13.70;;;6.27;;
14736;SDS011;7459;53.590;10.062;2022-08-26T08:22:36;14.27;;;6.10;;
14736;SDS011;7459;53.590;10.062;2022-08-26T08:25:02;17.13;;;6.63;;
14736;SDS011;7459;53.590;10.062;2022-08-26T08:27:28;14.05;;;6.93;;
14736;SDS011;7459;53.590;10.062;2022-08-26T08:29:57;13.60;;;7.22;;
14736;SDS011;7459;53.590;10.062;2022-08-26T08:32:24;16.10;;;6.50;;
14736;SDS011;7459;53.590;10.062;2022-08-26T08:34:50;13.82;;;7.07;;
14736;SDS011;7459;53.590;10.062;2022-08-26T08:37:15;13.57;;;6.40;;
14736;SDS011;7459;53.590;10.062;2022-08-26T08:39:41;14.60;;;7.07;;
14736;SDS011;7459;53.590;10.062;2022-08-26T08:42:13;14.63;;;6.72;;
14736;SDS011;7459;53.590;10.062;2022-08-26T08:45:06;15.50;;;6.53;;
14736;SDS011;7459;53.590;10.062;2022-08-26T08:47:40;14.35;;;7.05;;
14736;SDS011;7459;53.590;10.062;2022-08-26T08:50:22;14.18;;;7.00;;
14736;SDS011;7459;53.590;10.062;2022-08-26T08:55:47;15.73;;;7.18;;
14736;SDS011;7459;53.590;10.062;2022-08-26T08:58:21;17.13;;;7.30;;
14736;SDS011;7459;53.590;10.062;2022-08-26T09:01:00;14.63;;;6.88;;
14736;SDS011;7459;53.590;10.062;2022-08-26T09:03:35;15.70;;;6.85;;
14736;SDS011;7459;53.590;10.062;2022-08-26T09:06:09;18.30;;;7.65;;
14736;SDS011;7459;53.590;10.062;2022-08-26T09:08:41;13.27;;;6.85;;
14736;SDS011;7459;53.590;10.062;2022-08-26T09:11:09;17.63;;;6.90;;
14736;SDS011;7459;53.590;10.062;2022-08-26T09:13:35;14.40;;;7.10;;
14736;SDS011;7459;53.590;10.062;2022-08-26T09:16:08;13.80;;;6.80;;
14736;SDS011;7459;53.590;10.062;2022-08-26T09:18:53;13.95;;;6.85;;
14736;SDS011;7459;53.590;10.062;2022-08-26T09:21:30;19.05;;;7.28;;
14736;SDS011;7459;53.590;10.062;2022-08-26T09:23:57;16.20;;;7.17;;
14736;SDS011;7459;53.590;10.062;2022-08-26T09:29:25;15.05;;;7.00;;
14736;SDS011;7459;53.590;10.062;2022-08-26T09:37:33;15.93;;;6.30;;
14736;SDS011;7459;53.590;10.062;2022-08-26T09:40:12;16.73;;;7.20;;
14736;SDS011;7459;53.590;10.062;2022-08-26T09:42:46;19.00;;;6.30;;
14736;SDS011;7459;53.590;10.062;2022-08-26T09:45:26;14.23;;;6.30;;
14736;SDS011;7459;53.590;10.062;2022-08-26T09:47:53;16.15;;;6.93;;
14736;SDS011;7459;53.590;10.062;2022-08-26T09:55:36;12.88;;;6.75;;
14736;SDS011;7459;53.590;10.062;2022-08-26T09:58:05;15.85;;;7.10;;
14736;SDS011;7459;53.590;10.062;2022-08-26T10:03:00;18.47;;;8.13;;
14736;SDS011;7459;53.590;10.062;2022-08-26T10:08:32;15.45;;;7.57;;
14736;SDS011;7459;53.590;10.062;2022-08-26T10:11:10;22.70;;;7.28;;
14736;SDS011;7459;53.590;10.062;2022-08-26T10:13:48;18.23;;;7.38;;
14736;SDS011;7459;53.590;10.062;2022-08-26T10:16:24;15.20;;;7.30;;
14736;SDS011;7459;53.590;10.062;2022-08-26T10:19:05;17.00;;;7.47;;
14736;SDS011;7459;53.590;10.062;2022-08-26T10:21:34;16.45;;;7.22;;
14736;SDS011;7459;53.590;10.062;2022-08-26T10:24:20;24.23;;;8.75;;
14736;SDS011;7459;53.590;10.062;2022-08-26T10:29:29;17.50;;;7.80;;
14736;SDS011;7459;53.590;10.062;2022-08-26T10:32:10;18.48;;;7.70;;
14736;SDS011;7459;53.590;10.062;2022-08-26T10:34:42;18.65;;;8.10;;
14736;SDS011;7459;53.590;10.062;2022-08-26T10:37:12;19.55;;;7.63;;
14736;SDS011;7459;53.590;10.062;2022-08-26T10:42:55;20.03;;;7.23;;
14736;SDS011;7459;53.590;10.062;2022-08-26T10:45:29;14.10;;;7.38;;
14736;SDS011;7459;53.590;10.062;2022-08-26T10:48:08;15.63;;;7.30;;
14736;SDS011;7459;53.590;10.062;2022-08-26T10:50:42;19.73;;;6.75;;
14736;SDS011;7459;53.590;10.062;2022-08-26T10:53:13;16.42;;;7.20;;
14736;SDS011;7459;53.590;10.062;2022-08-26T10:55:49;16.93;;;7.37;;
14736;SDS011;7459;53.590;10.062;2022-08-26T10:58:52;17.33;;;7.00;;
14736;SDS011;7459;53.590;10.062;2022-08-26T11:04:19;21.38;;;8.05;;
14736;SDS011;7459;53.590;10.062;2022-08-26T11:07:27;20.10;;;7.45;;
14736;SDS011;7459;53.590;10.062;2022-08-26T11:10:09;15.93;;;7.23;;
14736;SDS011;7459;53.590;10.062;2022-08-26T11:22:54;19.73;;;7.60;;
14736;SDS011;7459;53.590;10.062;2022-08-26T11:25:21;17.33;;;7.75;;
14736;SDS011;7459;53.590;10.062;2022-08-26T11:35:09;18.77;;;7.17;;
14736;SDS011;7459;53.590;10.062;2022-08-26T11:37:50;16.98;;;6.75;;
14736;SDS011;7459;53.590;10.062;2022-08-26T11:40:27;18.05;;;6.75;;
14736;SDS011;7459;53.590;10.062;2022-08-26T11:43:04;18.92;;;7.00;;
14736;SDS011;7459;53.590;10.062;2022-08-26T11:45:43;18.27;;;6.83;;
14736;SDS011;7459;53.590;10.062;2022-08-26T11:48:27;17.52;;;6.82;;
14736;SDS011;7459;53.590;10.062;2022-08-26T11:51:02;20.25;;;6.60;;
14736;SDS011;7459;53.590;10.062;2022-08-26T11:53:38;18.00;;;6.85;;
14736;SDS011;7459;53.590;10.062;2022-08-26T11:56:15;18.17;;;7.03;;
14736;SDS011;7459;53.590;10.062;2022-08-26T11:58:52;16.30;;;6.10;;
14736;SDS011;7459;53.590;10.062;2022-08-26T12:01:25;14.88;;;6.20;;
14736;SDS011;7459;53.590;10.062;2022-08-26T12:03:55;15.13;;;6.40;;
14736;SDS011;7459;53.590;10.062;2022-08-26T12:06:34;14.75;;;5.75;;
14736;SDS011;7459;53.590;10.062;2022-08-26T12:09:08;16.27;;;6.63;;
14736;SDS011;7459;53.590;10.062;2022-08-26T12:11:47;12.43;;;6.00;;
14736;SDS011;7459;53.590;10.062;2022-08-26T12:14:17;13.32;;;6.38;;
14736;SDS011;7459;53.590;10.062;2022-08-26T12:16:46;16.05;;;6.55;;
14736;SDS011;7459;53.590;10.062;2022-08-26T12:21:54;11.40;;;5.97;;
14736;SDS011;7459;53.590;10.062;2022-08-26T12:24:26;16.67;;;6.63;;
14736;SDS011;7459;53.590;10.062;2022-08-26T12:30:06;11.27;;;5.38;;
14736;SDS011;7459;53.590;10.062;2022-08-26T12:32:42;19.27;;;5.45;;
14736;SDS011;7459;53.590;10.062;2022-08-26T12:35:13;12.13;;;6.17;;
14736;SDS011;7459;53.590;10.062;2022-08-26T12:37:46;17.35;;;6.45;;
14736;SDS011;7459;53.590;10.062;2022-08-26T12:42:59;15.23;;;6.55;;
14736;SDS011;7459;53.590;10.062;2022-08-26T12:45:29;11.52;;;5.80;;
14736;SDS011;7459;53.590;10.062;2022-08-26T12:48:08;18.10;;;7.27;;
14736;SDS011;7459;53.590;10.062;2022-08-26T12:50:47;13.65;;;6.78;;
14736;SDS011;7459;53.590;10.062;2022-08-26T12:53:22;18.65;;;6.93;;
14736;SDS011;7459;53.590;10.062;2022-08-26T12:56:01;17.17;;;7.35;;
14736;SDS011;7459;53.590;10.062;2022-08-26T13:09:01;17.93;;;7.00;;
14736;SDS011;7459;53.590;10.062;2022-08-26T13:14:08;12.57;;;7.28;;
14736;SDS011;7459;53.590;10.062;2022-08-26T13:16:37;16.60;;;7.35;;
14736;SDS011;7459;53.590;10.062;2022-08-26T13:19:06;17.60;;;6.72;;
14736;SDS011;7459;53.590;10.062;2022-08-26T13:21:42;15.03;;;7.70;;
14736;SDS011;7459;53.590;10.062;2022-08-26T13:24:40;15.52;;;7.65;;
14736;SDS011;7459;53.590;10.062;2022-08-26T13:27:08;17.83;;;8.15;;
14736;SDS011;7459;53.590;10.062;2022-08-26T13:29:36;15.27;;;7.25;;
14736;SDS011;7459;53.590;10.062;2022-08-26T13:32:03;12.02;;;7.07;;
14736;SDS011;7459;53.590;10.062;2022-08-26T13:34:30;16.43;;;7.60;;
14736;SDS011;7459;53.590;10.062;2022-08-26T13:36:56;15.63;;;7.05;;
14736;SDS011;7459;53.590;10.062;2022-08-26T13:39:23;13.43;;;6.97;;
14736;SDS011;7459;53.590;10.062;2022-08-26T13:41:50;17.38;;;8.02;;
14736;SDS011;7459;53.590;10.062;2022-08-26T13:44:16;16.53;;;7.87;;
14736;SDS011;7459;53.590;10.062;2022-08-26T13:46:42;16.35;;;6.95;;
14736;SDS011;7459;53.590;10.062;2022-08-26T13:49:08;15.77;;;7.05;;
14736;SDS011;7459;53.590;10.062;2022-08-26T13:51:35;17.60;;;7.88;;
14736;SDS011;7459;53.590;10.062;2022-08-26T13:54:01;17.25;;;7.50;;
14736;SDS011;7459;53.590;10.062;2022-08-26T13:56:27;21.27;;;7.43;;
14736;SDS011;7459;53.590;10.062;2022-08-26T13:58:54;17.65;;;7.85;;
14736;SDS011;7459;53.590;10.062;2022-08-26T14:01:25;14.82;;;7.72;;
14736;SDS011;7459;53.590;10.062;2022-08-26T14:03:53;18.73;;;8.25;;
14736;SDS011;7459;53.590;10.062;2022-08-26T14:06:19;17.70;;;8.37;;
14736;SDS011;7459;53.590;10.062;2022-08-26T14:08:45;13.02;;;7.60;;
14736;SDS011;7459;53.590;10.062;2022-08-26T14:11:12;17.70;;;7.68;;
14736;SDS011;7459;53.590;10.062;2022-08-26T14:13:38;17.55;;;7.30;;
14736;SDS011;7459;53.590;10.062;2022-08-26T14:16:06;18.07;;;8.20;;
14736;SDS011;7459;53.590;10.062;2022-08-26T14:18:36;21.27;;;8.30;;
14736;SDS011;7459;53.590;10.062;2022-08-26T14:21:04;16.80;;;8.32;;
14736;SDS011;7459;53.590;10.062;2022-08-26T14:23:30;16.55;;;7.57;;
14736;SDS011;7459;53.590;10.062;2022-08-26T14:25:56;16.17;;;7.95;;
14736;SDS011;7459;53.590;10.062;2022-08-26T14:28:22;19.27;;;7.47;;
14736;SDS011;7459;53.590;10.062;2022-08-26T14:30:52;17.13;;;7.55;;
14736;SDS011;7459;53.590;10.062;2022-08-26T14:33:22;20.37;;;7.60;;
14736;SDS011;7459;53.590;10.062;2022-08-26T14:35:51;19.15;;;7.65;;
14736;SDS011;7459;53.590;10.062;2022-08-26T14:38:17;16.17;;;7.90;;
14736;SDS011;7459;53.590;10.062;2022-08-26T14:40:43;23.27;;;8.00;;
14736;SDS011;7459;53.590;10.062;2022-08-26T14:43:09;17.38;;;7.80;;
14736;SDS011;7459;53.590;10.062;2022-08-26T14:45:39;21.00;;;8.15;;
14736;SDS011;7459;53.590;10.062;2022-08-26T14:48:07;17.27;;;7.25;;
14736;SDS011;7459;53.590;10.062;2022-08-26T14:50:33;18.45;;;7.78;;
14736;SDS011;7459;53.590;10.062;2022-08-26T14:52:59;14.13;;;7.33;;
14736;SDS011;7459;53.590;10.062;2022-08-26T14:55:44;23.77;;;7.38;;
14736;SDS011;7459;53.590;10.062;2022-08-26T14:58:10;16.13;;;7.00;;
14736;SDS011;7459;53.590;10.062;2022-08-26T15:00:36;17.67;;;6.78;;
14736;SDS011;7459;53.590;10.062;2022-08-26T15:03:03;14.43;;;6.93;;
14736;SDS011;7459;53.590;10.062;2022-08-26T15:05:29;16.83;;;6.97;;
14736;SDS011;7459;53.590;10.062;2022-08-26T15:07:55;12.38;;;6.30;;
14736;SDS011;7459;53.590;10.062;2022-08-26T15:10:21;15.38;;;5.90;;
14736;SDS011;7459;53.590;10.062;2022-08-26T15:12:47;15.30;;;6.57;;
14736;SDS011;7459;53.590;10.062;2022-08-26T15:15:13;13.95;;;5.93;;
14736;SDS011;7459;53.590;10.062;2022-08-26T15:17:41;14.48;;;5.72;;
14736;SDS011;7459;53.590;10.062;2022-08-26T15:20:08;17.67;;;6.18;;
14736;SDS011;7459;53.590;10.062;2022-08-26T15:22:35;10.82;;;5.55;;
14736;SDS011;7459;53.590;10.062;2022-08-26T15:25:03;11.13;;;5.43;;
14736;SDS011;7459;53.590;10.062;2022-08-26T15:27:31;12.15;;;5.30;;
14736;SDS011;7459;53.590;10.062;2022-08-26T15:29:56;14.77;;;5.63;;
14736;SDS011;7459;53.590;10.062;2022-08-26T15:32:22;13.87;;;6.03;;
14736;SDS011;7459;53.590;10.062;2022-08-26T15:34:48;18.23;;;5.57;;
14736;SDS011;7459;53.590;10.062;2022-08-26T15:37:14;11.98;;;5.13;;
14736;SDS011;7459;53.590;10.062;2022-08-26T15:39:40;10.17;;;5.00;;
14736;SDS011;7459;53.590;10.062;2022-08-26T15:42:06;9.70;;;4.70;;
14736;SDS011;7459;53.590;10.062;2022-08-26T15:44:32;12.70;;;4.93;;
14736;SDS011;7459;53.590;10.062;2022-08-26T15:46:58;13.30;;;5.18;;
14736;SDS011;7459;53.590;10.062;2022-08-26T15:49:24;9.82;;;4.57;;
14736;SDS011;7459;53.590;10.062;2022-08-26T15:51:51;10.48;;;4.05;;
14736;SDS011;7459;53.590;10.062;2022-08-26T15:54:18;13.15;;;5.07;;
14736;SDS011;7459;53.590;10.062;2022-08-26T15:56:46;12.33;;;4.83;;
14736;SDS011;7459;53.590;10.062;2022-08-26T15:59:15;9.73;;;4.15;;
14736;SDS011;7459;53.590;10.062;2022-08-26T16:01:42;9.80;;;4.80;;
14736;SDS011;7459;53.590;10.062;2022-08-26T16:04:08;13.27;;;4.78;;